createdAt,value
2023-01-20T00:00:58.895Z,965.19
2023-01-20T00:01:58.871Z,965.21
2023-01-20T00:02:59.091Z,965.19
2023-01-20T00:03:58.925Z,965.20
2023-01-20T00:04:58.789Z,965.22
2023-01-20T00:05:58.838Z,965.21
2023-01-20T00:06:58.748Z,965.26
2023-01-20T00:07:58.731Z,965.29
2023-01-20T00:08:58.705Z,965.25
2023-01-20T00:09:58.690Z,965.30
2023-01-20T00:10:58.667Z,965.30
2023-01-20T00:11:58.649Z,965.29
2023-01-20T00:12:58.632Z,965.27
2023-01-20T00:13:58.622Z,965.26
2023-01-20T00:14:58.584Z,965.26
2023-01-20T00:15:58.587Z,965.29
2023-01-20T00:16:58.544Z,965.31
2023-01-20T00:17:58.559Z,965.30
2023-01-20T00:18:58.512Z,965.32
2023-01-20T00:19:58.491Z,965.34
2023-01-20T00:20:58.493Z,965.33
2023-01-20T00:21:58.447Z,965.35
2023-01-20T00:22:58.423Z,965.37
2023-01-20T00:23:58.419Z,965.38
2023-01-20T00:24:58.391Z,965.36
2023-01-20T00:25:58.365Z,965.37
2023-01-20T00:26:58.343Z,965.39
2023-01-20T00:27:58.328Z,965.40
2023-01-20T00:28:58.301Z,965.39
2023-01-20T00:29:58.286Z,965.42
2023-01-20T00:30:58.376Z,965.45
2023-01-20T00:31:58.245Z,965.44
2023-01-20T00:32:58.222Z,965.47
2023-01-20T00:33:58.222Z,965.44
2023-01-20T00:34:58.179Z,965.47
2023-01-20T00:35:58.163Z,965.48
2023-01-20T00:36:58.139Z,965.51
2023-01-20T00:37:58.130Z,965.49
2023-01-20T00:38:58.114Z,965.51
2023-01-20T00:39:58.080Z,965.53
2023-01-20T00:40:58.063Z,965.53
2023-01-20T00:41:58.039Z,965.58
2023-01-20T00:42:58.068Z,965.62
2023-01-20T00:43:58.001Z,965.62
2023-01-20T00:44:57.976Z,965.65
2023-01-20T00:45:57.959Z,965.64
2023-01-20T00:46:57.940Z,965.67
2023-01-20T00:47:57.925Z,965.66
2023-01-20T00:48:57.948Z,965.65
2023-01-20T00:49:57.910Z,965.72
2023-01-20T00:50:57.859Z,965.70
2023-01-20T00:51:57.837Z,965.69
2023-01-20T00:52:57.813Z,965.68
2023-01-20T00:53:57.802Z,965.69
2023-01-20T00:54:57.771Z,965.68
2023-01-20T00:55:57.755Z,965.71
2023-01-20T00:56:57.737Z,965.73
2023-01-20T00:57:57.714Z,965.73
2023-01-20T00:58:57.745Z,965.72
2023-01-20T00:59:57.672Z,965.74
2023-01-20T01:00:57.733Z,965.73
2023-01-20T01:01:57.851Z,965.73
2023-01-20T01:02:57.611Z,965.75
2023-01-20T01:03:57.593Z,965.79
2023-01-20T01:04:57.570Z,965.78
2023-01-20T01:05:57.570Z,965.78
2023-01-20T01:06:57.531Z,965.79
2023-01-20T01:07:57.521Z,965.83
2023-01-20T01:08:57.486Z,965.84
2023-01-20T01:09:57.469Z,965.88
2023-01-20T01:10:57.447Z,965.88
2023-01-20T01:11:57.429Z,965.93
2023-01-20T01:12:57.406Z,965.87
2023-01-20T01:13:57.387Z,965.94
2023-01-20T01:14:57.365Z,965.96
2023-01-20T01:15:57.380Z,965.98
2023-01-20T01:16:57.497Z,965.97
2023-01-20T01:17:57.308Z,966.00
2023-01-20T01:18:57.284Z,965.99
2023-01-20T01:19:57.270Z,966.02
2023-01-20T01:20:57.266Z,966.03
2023-01-20T01:21:57.242Z,966.05
2023-01-20T01:22:57.211Z,966.06
2023-01-20T01:23:57.183Z,966.06
2023-01-20T01:24:57.160Z,966.06
2023-01-20T01:25:57.146Z,966.11
2023-01-20T01:26:57.134Z,966.09
2023-01-20T01:27:57.100Z,966.11
2023-01-20T01:28:57.080Z,966.16
2023-01-20T01:29:57.060Z,966.15
2023-01-20T01:30:57.075Z,966.15
2023-01-20T01:31:57.022Z,966.16
2023-01-20T01:32:56.997Z,966.18
2023-01-20T01:33:56.981Z,966.19
2023-01-20T01:34:56.957Z,966.21
2023-01-20T01:35:56.940Z,966.24
2023-01-20T01:36:56.915Z,966.27
2023-01-20T01:37:56.916Z,966.27
2023-01-20T01:38:56.874Z,966.23
2023-01-20T01:39:56.856Z,966.28
2023-01-20T01:40:56.833Z,966.30
2023-01-20T01:41:56.815Z,966.29
2023-01-20T01:42:56.792Z,966.29
2023-01-20T01:43:56.773Z,966.30
2023-01-20T01:44:56.751Z,966.28
2023-01-20T01:45:56.774Z,966.29
2023-01-20T01:46:56.716Z,966.29
2023-01-20T01:47:56.690Z,966.29
2023-01-20T01:48:56.671Z,966.27
2023-01-20T01:49:56.652Z,966.30
2023-01-20T01:50:56.629Z,966.31
2023-01-20T01:51:56.609Z,966.33
2023-01-20T01:52:56.604Z,966.34
2023-01-20T01:53:56.593Z,966.34
2023-01-20T01:54:56.546Z,966.33
2023-01-20T01:55:56.528Z,966.35
2023-01-20T01:56:56.506Z,966.37
2023-01-20T01:57:56.486Z,966.37
2023-01-20T01:58:56.469Z,966.36
2023-01-20T01:59:56.498Z,966.35
2023-01-20T02:00:56.473Z,966.38
2023-01-20T02:01:56.507Z,966.39
2023-01-20T02:02:56.385Z,966.39
2023-01-20T02:03:56.371Z,966.40
2023-01-20T02:04:56.345Z,966.38
2023-01-20T02:05:56.323Z,966.38
2023-01-20T02:06:56.309Z,966.40
2023-01-20T02:07:56.293Z,966.39
2023-01-20T02:08:56.259Z,966.42
2023-01-20T02:09:56.256Z,966.42
2023-01-20T02:10:56.226Z,966.45
2023-01-20T02:11:56.194Z,966.47
2023-01-20T02:12:56.186Z,966.45
2023-01-20T02:13:56.154Z,966.45
2023-01-20T02:14:56.146Z,966.45
2023-01-20T02:15:56.113Z,966.48
2023-01-20T02:16:56.093Z,966.49
2023-01-20T02:17:56.076Z,966.55
2023-01-20T02:18:56.063Z,966.52
2023-01-20T02:19:56.055Z,966.50
2023-01-20T02:20:56.029Z,966.52
2023-01-20T02:21:55.996Z,966.55
2023-01-20T02:22:55.988Z,966.54
2023-01-20T02:23:55.952Z,966.55
2023-01-20T02:24:55.938Z,966.59
2023-01-20T02:25:55.935Z,966.60
2023-01-20T02:26:55.898Z,966.64
2023-01-20T02:27:55.862Z,966.56
2023-01-20T02:28:55.850Z,966.60
2023-01-20T02:29:55.832Z,966.60
2023-01-20T02:30:55.889Z,966.60
2023-01-20T02:31:55.839Z,966.59
2023-01-20T02:32:55.770Z,966.64
2023-01-20T02:33:55.740Z,966.64
2023-01-20T02:34:55.727Z,966.63
2023-01-20T02:35:55.714Z,966.63
2023-01-20T02:36:55.703Z,966.65
2023-01-20T02:37:55.666Z,966.67
2023-01-20T02:38:55.656Z,966.64
2023-01-20T02:39:55.629Z,966.62
2023-01-20T02:40:55.603Z,966.66
2023-01-20T02:41:55.594Z,966.63
2023-01-20T02:42:55.563Z,966.66
2023-01-20T02:43:55.543Z,966.65
2023-01-20T02:44:55.515Z,966.65
2023-01-20T02:45:55.526Z,966.61
2023-01-20T02:46:55.476Z,966.65
2023-01-20T02:47:55.453Z,966.64
2023-01-20T02:48:55.437Z,966.69
2023-01-20T02:49:55.413Z,966.71
2023-01-20T02:50:55.394Z,966.67
2023-01-20T02:51:55.419Z,966.70
2023-01-20T02:52:55.351Z,966.68
2023-01-20T02:53:55.325Z,966.70
2023-01-20T02:54:55.311Z,966.71
2023-01-20T02:55:55.290Z,966.70
2023-01-20T02:56:55.269Z,966.70
2023-01-20T02:57:55.261Z,966.73
2023-01-20T02:58:55.232Z,966.72
2023-01-20T02:59:55.209Z,966.69
2023-01-20T03:00:55.219Z,966.70
2023-01-20T03:01:55.363Z,966.73
2023-01-20T03:02:55.143Z,966.75
2023-01-20T03:03:55.167Z,966.76
2023-01-20T03:04:55.100Z,966.77
2023-01-20T03:05:55.134Z,966.79
2023-01-20T03:06:55.063Z,966.74
2023-01-20T03:07:55.035Z,966.77
2023-01-20T03:08:55.017Z,966.82
2023-01-20T03:09:54.993Z,966.81
2023-01-20T03:10:54.982Z,966.88
2023-01-20T03:11:54.956Z,966.86
2023-01-20T03:12:54.936Z,966.89
2023-01-20T03:13:54.941Z,966.92
2023-01-20T03:14:54.906Z,966.91
2023-01-20T03:15:54.878Z,966.94
2023-01-20T03:16:54.913Z,966.90
2023-01-20T03:17:54.830Z,966.93
2023-01-20T03:18:54.813Z,966.93
2023-01-20T03:19:54.805Z,966.94
2023-01-20T03:20:54.829Z,966.94
2023-01-20T03:21:54.745Z,966.96
2023-01-20T03:22:54.730Z,966.98
2023-01-20T03:23:54.710Z,966.98
2023-01-20T03:24:54.684Z,967.02
2023-01-20T03:25:54.662Z,966.99
2023-01-20T03:26:54.645Z,967.00
2023-01-20T03:27:54.620Z,967.02
2023-01-20T03:28:54.634Z,967.04
2023-01-20T03:29:54.610Z,967.05
2023-01-20T03:30:54.655Z,967.04
2023-01-20T03:31:54.537Z,967.06
2023-01-20T03:32:54.522Z,967.04
2023-01-20T03:33:54.495Z,967.11
2023-01-20T03:34:54.480Z,967.10
2023-01-20T03:35:54.454Z,967.13
2023-01-20T03:36:54.450Z,967.16
2023-01-20T03:37:54.415Z,967.14
2023-01-20T03:38:54.395Z,967.11
2023-01-20T03:39:54.375Z,967.13
2023-01-20T03:40:54.355Z,967.15
2023-01-20T03:41:54.333Z,967.14
2023-01-20T03:42:54.324Z,967.17
2023-01-20T03:43:54.299Z,967.16
2023-01-20T03:44:54.279Z,967.21
2023-01-20T03:45:54.286Z,967.18
2023-01-20T03:46:54.232Z,967.20
2023-01-20T03:47:54.212Z,967.22
2023-01-20T03:48:54.203Z,967.21
2023-01-20T03:49:54.165Z,967.19
2023-01-20T03:50:54.158Z,967.23
2023-01-20T03:51:54.130Z,967.24
2023-01-20T03:52:54.110Z,967.26
2023-01-20T03:53:54.106Z,967.24
2023-01-20T03:54:54.070Z,967.30
2023-01-20T03:55:54.044Z,967.26
2023-01-20T03:56:54.027Z,967.29
2023-01-20T03:57:54.003Z,967.30
2023-01-20T03:58:53.995Z,967.33
2023-01-20T03:59:53.964Z,967.30
2023-01-20T04:00:53.978Z,967.26
2023-01-20T04:01:54.090Z,967.28
2023-01-20T04:02:53.907Z,967.33
2023-01-20T04:03:53.880Z,967.33
2023-01-20T04:04:53.860Z,967.35
2023-01-20T04:05:53.835Z,967.33
2023-01-20T04:06:53.823Z,967.37
2023-01-20T04:07:53.800Z,967.35
2023-01-20T04:08:56.472Z,967.41
2023-01-20T04:09:53.754Z,967.40
2023-01-20T04:10:53.739Z,967.39
2023-01-20T04:11:53.755Z,967.39
2023-01-20T04:12:53.696Z,967.45
2023-01-20T04:13:53.674Z,967.48
2023-01-20T04:14:53.654Z,967.45
2023-01-20T04:15:53.702Z,967.47
2023-01-20T04:16:53.627Z,967.51
2023-01-20T04:17:53.610Z,967.54
2023-01-20T04:18:53.570Z,967.50
2023-01-20T04:19:53.547Z,967.53
2023-01-20T04:20:53.534Z,967.52
2023-01-20T04:21:53.509Z,967.55
2023-01-20T04:22:53.494Z,967.57
2023-01-20T04:23:53.464Z,967.62
2023-01-20T04:24:53.448Z,967.60
2023-01-20T04:25:53.426Z,967.62
2023-01-20T04:26:53.427Z,967.59
2023-01-20T04:27:53.398Z,967.59
2023-01-20T04:28:53.366Z,967.60
2023-01-20T04:29:53.350Z,967.60
2023-01-20T04:30:53.595Z,967.60
2023-01-20T04:31:53.420Z,967.62
2023-01-20T04:32:53.280Z,967.61
2023-01-20T04:33:53.278Z,967.63
2023-01-20T04:34:53.241Z,967.66
2023-01-20T04:35:53.216Z,967.67
2023-01-20T04:36:53.196Z,967.66
2023-01-20T04:37:53.175Z,967.68
2023-01-20T04:38:53.162Z,967.66
2023-01-20T04:39:53.136Z,967.68
2023-01-20T04:40:53.117Z,967.67
2023-01-20T04:41:53.130Z,967.68
2023-01-20T04:42:53.073Z,967.70
2023-01-20T04:43:53.058Z,967.73
2023-01-20T04:44:53.032Z,967.74
2023-01-20T04:45:53.096Z,967.73
2023-01-20T04:46:52.993Z,967.78
2023-01-20T04:47:52.971Z,967.80
2023-01-20T04:48:52.949Z,967.81
2023-01-20T04:49:52.951Z,967.83
2023-01-20T04:50:52.907Z,967.82
2023-01-20T04:51:52.885Z,967.82
2023-01-20T04:52:52.866Z,967.84
2023-01-20T04:53:52.843Z,967.86
2023-01-20T04:54:52.824Z,967.83
2023-01-20T04:55:52.802Z,967.88
2023-01-20T04:56:52.783Z,967.86
2023-01-20T04:57:52.760Z,967.89
2023-01-20T04:58:52.747Z,967.87
2023-01-20T04:59:52.727Z,967.93
2023-01-20T05:00:52.699Z,967.98
2023-01-20T05:01:52.765Z,967.99
2023-01-20T05:02:52.695Z,967.98
2023-01-20T05:03:52.645Z,967.97
2023-01-20T05:04:52.618Z,968.05
2023-01-20T05:05:52.614Z,968.01
2023-01-20T05:06:52.575Z,968.06
2023-01-20T05:07:52.557Z,968.04
2023-01-20T05:08:52.533Z,968.06
2023-01-20T05:09:52.509Z,968.08
2023-01-20T05:10:52.495Z,968.09
2023-01-20T05:11:52.517Z,968.09
2023-01-20T05:12:52.469Z,968.09
2023-01-20T05:13:52.427Z,968.16
2023-01-20T05:14:52.412Z,968.16
2023-01-20T05:15:52.398Z,968.16
2023-01-20T05:16:52.377Z,968.16
2023-01-20T05:17:52.347Z,968.17
2023-01-20T05:18:52.350Z,968.16
2023-01-20T05:19:52.305Z,968.25
2023-01-20T05:20:52.285Z,968.24
2023-01-20T05:21:52.281Z,968.27
2023-01-20T05:22:52.248Z,968.28
2023-01-20T05:23:52.223Z,968.30
2023-01-20T05:24:52.204Z,968.33
2023-01-20T05:25:52.233Z,968.34
2023-01-20T05:26:52.183Z,968.38
2023-01-20T05:27:52.159Z,968.41
2023-01-20T05:28:52.144Z,968.39
2023-01-20T05:29:52.177Z,968.40
2023-01-20T05:30:52.253Z,968.44
2023-01-20T05:31:52.088Z,968.46
2023-01-20T05:32:52.071Z,968.45
2023-01-20T05:33:52.025Z,968.53
2023-01-20T05:34:52.000Z,968.51
2023-01-20T05:35:53.768Z,968.53
2023-01-20T05:36:51.959Z,968.57
2023-01-20T05:37:51.952Z,968.57
2023-01-20T05:38:51.917Z,968.60
2023-01-20T05:39:51.893Z,968.62
2023-01-20T05:40:51.879Z,968.62
2023-01-20T05:41:51.851Z,968.67
2023-01-20T05:42:51.850Z,968.67
2023-01-20T05:43:51.811Z,968.65
2023-01-20T05:44:51.794Z,968.68
2023-01-20T05:45:51.771Z,968.67
2023-01-20T05:46:51.757Z,968.71
2023-01-20T05:47:51.732Z,968.76
2023-01-20T05:48:51.718Z,968.75
2023-01-20T05:49:51.689Z,968.81
2023-01-20T05:50:51.673Z,968.84
2023-01-20T05:51:51.654Z,968.85
2023-01-20T05:52:51.630Z,968.84
2023-01-20T05:53:51.632Z,968.90
2023-01-20T05:54:51.592Z,968.90
2023-01-20T05:55:51.567Z,968.90
2023-01-20T05:56:51.549Z,968.94
2023-01-20T05:57:51.532Z,968.95
2023-01-20T05:58:51.517Z,968.95
2023-01-20T05:59:51.519Z,969.02
2023-01-20T06:00:51.467Z,969.01
2023-01-20T06:01:51.456Z,969.00
2023-01-20T06:02:51.563Z,969.02
2023-01-20T06:03:51.566Z,969.06
2023-01-20T06:04:51.387Z,969.10
2023-01-20T06:05:51.361Z,969.09
2023-01-20T06:06:51.344Z,969.13
2023-01-20T06:07:51.321Z,969.12
2023-01-20T06:08:51.303Z,969.14
2023-01-20T06:09:51.303Z,969.16
2023-01-20T06:10:51.268Z,969.16
2023-01-20T06:11:51.238Z,969.20
2023-01-20T06:12:51.227Z,969.18
2023-01-20T06:13:51.201Z,969.15
2023-01-20T06:14:51.229Z,969.19
2023-01-20T06:15:51.181Z,969.19
2023-01-20T06:16:51.137Z,969.27
2023-01-20T06:17:51.121Z,969.26
2023-01-20T06:18:51.098Z,969.25
2023-01-20T06:19:51.079Z,969.25
2023-01-20T06:20:51.076Z,969.27
2023-01-20T06:21:51.040Z,969.30
2023-01-20T06:22:51.016Z,969.29
2023-01-20T06:23:51.001Z,969.31
2023-01-20T06:24:50.974Z,969.34
2023-01-20T06:25:50.977Z,969.36
2023-01-20T06:26:50.936Z,969.34
2023-01-20T06:27:50.913Z,969.37
2023-01-20T06:28:50.899Z,969.38
2023-01-20T06:29:50.918Z,969.39
2023-01-20T06:30:50.908Z,969.39
2023-01-20T06:31:50.859Z,969.39
2023-01-20T06:32:50.813Z,969.36
2023-01-20T06:33:50.845Z,969.38
2023-01-20T06:34:50.773Z,969.43
2023-01-20T06:35:50.756Z,969.45
2023-01-20T06:36:50.730Z,969.48
2023-01-20T06:37:50.715Z,969.48
2023-01-20T06:38:50.767Z,969.49
2023-01-20T06:39:50.671Z,969.52
2023-01-20T06:40:50.655Z,969.57
2023-01-20T06:41:50.649Z,969.59
2023-01-20T06:42:50.611Z,969.62
2023-01-20T06:43:50.594Z,969.62
2023-01-20T06:44:50.571Z,969.64
2023-01-20T06:45:50.550Z,969.64
2023-01-20T06:46:50.563Z,969.65
2023-01-20T06:47:50.511Z,969.68
2023-01-20T06:48:50.487Z,969.69
2023-01-20T06:49:50.472Z,969.68
2023-01-20T06:50:50.449Z,969.71
2023-01-20T06:51:50.442Z,969.70
2023-01-20T06:52:50.408Z,969.70
2023-01-20T06:53:50.396Z,969.70
2023-01-20T06:54:50.365Z,969.68
2023-01-20T06:55:52.941Z,969.72
2023-01-20T06:56:50.325Z,969.71
2023-01-20T06:57:50.327Z,969.70
2023-01-20T06:58:50.288Z,969.72
2023-01-20T06:59:50.267Z,969.73
2023-01-20T07:00:50.286Z,969.75
2023-01-20T07:01:50.567Z,969.80
2023-01-20T07:02:50.207Z,969.81
2023-01-20T07:03:50.191Z,969.81
2023-01-20T07:04:50.165Z,969.82
2023-01-20T07:05:50.149Z,969.84
2023-01-20T07:06:50.122Z,969.86
2023-01-20T07:07:50.103Z,969.86
2023-01-20T07:08:50.134Z,969.91
2023-01-20T07:09:50.064Z,969.95
2023-01-20T07:10:50.041Z,969.97
2023-01-20T07:11:50.026Z,969.96
2023-01-20T07:12:50.003Z,969.98
2023-01-20T07:13:50.006Z,970.05
2023-01-20T07:14:49.959Z,970.02
2023-01-20T07:15:49.955Z,970.05
2023-01-20T07:16:49.984Z,970.08
2023-01-20T07:17:49.902Z,970.12
2023-01-20T07:18:49.901Z,970.11
2023-01-20T07:19:49.863Z,970.17
2023-01-20T07:20:49.838Z,970.17
2023-01-20T07:21:49.822Z,970.17
2023-01-20T07:22:49.798Z,970.19
2023-01-20T07:23:49.780Z,970.24
2023-01-20T07:24:49.757Z,970.26
2023-01-20T07:25:49.745Z,970.25
2023-01-20T07:26:49.717Z,970.29
2023-01-20T07:27:49.698Z,970.27
2023-01-20T07:28:49.686Z,970.31
2023-01-20T07:29:49.676Z,970.32
2023-01-20T07:30:49.697Z,970.37
2023-01-20T07:31:49.667Z,970.37
2023-01-20T07:32:49.592Z,970.38
2023-01-20T07:33:49.581Z,970.40
2023-01-20T07:34:50.336Z,970.40
2023-01-20T07:35:49.538Z,970.45
2023-01-20T07:36:49.515Z,970.41
2023-01-20T07:37:49.502Z,970.42
2023-01-20T07:38:49.474Z,970.46
2023-01-20T07:39:49.458Z,970.47
2023-01-20T07:40:49.437Z,970.48
2023-01-20T07:41:49.416Z,970.56
2023-01-20T07:42:49.397Z,970.51
2023-01-20T07:43:49.391Z,970.57
2023-01-20T07:44:49.355Z,970.59
2023-01-20T07:45:49.423Z,970.64
2023-01-20T07:46:49.315Z,970.62
2023-01-20T07:47:49.296Z,970.62
2023-01-20T07:48:49.276Z,970.63
2023-01-20T07:49:49.255Z,970.68
2023-01-20T07:50:49.246Z,970.66
2023-01-20T07:52:49.194Z,970.74
2023-01-20T07:53:49.181Z,970.69
2023-01-20T07:54:49.155Z,970.74
2023-01-20T07:55:49.150Z,970.78
2023-01-20T07:56:49.121Z,970.75
2023-01-20T07:57:49.095Z,970.76
2023-01-20T07:58:49.077Z,970.78
2023-01-20T07:59:49.052Z,970.83
2023-01-20T08:00:49.108Z,970.87
2023-01-20T08:01:49.182Z,970.87
2023-01-20T08:02:48.994Z,970.92
2023-01-20T08:03:48.976Z,970.92
2023-01-20T08:04:49.013Z,970.93
2023-01-20T08:05:48.931Z,970.96
2023-01-20T08:06:48.963Z,970.99
2023-01-20T08:07:48.888Z,970.98
2023-01-20T08:08:48.875Z,970.95
2023-01-20T08:09:48.859Z,970.99
2023-01-20T08:10:48.918Z,970.99
2023-01-20T08:11:48.815Z,970.98
2023-01-20T08:12:48.796Z,970.94
2023-01-20T08:13:48.775Z,970.99
2023-01-20T08:14:48.752Z,971.01
2023-01-20T08:15:48.729Z,971.09
2023-01-20T08:16:48.758Z,971.09
2023-01-20T08:17:48.710Z,971.07
2023-01-20T08:18:48.673Z,971.11
2023-01-20T08:19:48.651Z,971.15
2023-01-20T08:20:48.635Z,971.17
2023-01-20T08:21:48.617Z,971.15
2023-01-20T08:22:48.599Z,971.13
2023-01-20T08:23:48.575Z,971.16
2023-01-20T08:24:48.551Z,971.21
2023-01-20T08:25:48.529Z,971.20
2023-01-20T08:26:48.514Z,971.20
2023-01-20T08:27:48.490Z,971.11
2023-01-20T08:28:48.474Z,971.14
2023-01-20T08:29:48.448Z,971.19
2023-01-20T08:30:48.483Z,971.20
2023-01-20T08:31:48.555Z,971.27
2023-01-20T08:32:48.389Z,971.26
2023-01-20T08:33:48.441Z,971.33
2023-01-20T08:34:48.352Z,971.27
2023-01-20T08:35:48.328Z,971.29
2023-01-20T08:36:48.315Z,971.35
2023-01-20T08:37:48.291Z,971.34
2023-01-20T08:38:48.272Z,971.32
2023-01-20T08:39:48.259Z,971.38
2023-01-20T08:40:48.232Z,971.36
2023-01-20T08:41:48.211Z,971.35
2023-01-20T08:42:48.192Z,971.36
2023-01-20T08:43:48.175Z,971.36
2023-01-20T08:44:48.154Z,971.41
2023-01-20T08:45:48.153Z,971.41
2023-01-20T08:46:48.113Z,971.41
2023-01-20T08:47:48.112Z,971.46
2023-01-20T08:48:48.073Z,971.44
2023-01-20T08:49:48.086Z,971.47
2023-01-20T08:50:48.037Z,971.41
2023-01-20T08:51:48.010Z,971.44
2023-01-20T08:52:47.996Z,971.43
2023-01-20T08:53:47.972Z,971.49
2023-01-20T08:54:47.956Z,971.49
2023-01-20T08:55:47.938Z,971.48
2023-01-20T08:56:47.917Z,971.51
2023-01-20T08:57:47.894Z,971.53
2023-01-20T08:58:47.877Z,971.52
2023-01-20T08:59:47.854Z,971.53
2023-01-20T09:00:47.837Z,971.57
2023-01-20T09:01:47.823Z,971.56
2023-01-20T09:02:47.859Z,971.55
2023-01-20T09:04:03.756Z,971.57
2023-01-20T09:04:47.758Z,971.64
2023-01-20T09:05:47.765Z,971.64
2023-01-20T09:06:47.718Z,971.64
2023-01-20T09:07:47.702Z,971.67
2023-01-20T09:08:47.679Z,971.69
2023-01-20T09:09:47.657Z,971.71
2023-01-20T09:10:47.641Z,971.72
2023-01-20T09:11:47.652Z,971.69
2023-01-20T09:12:47.600Z,971.75
2023-01-20T09:13:47.578Z,971.78
2023-01-20T09:14:47.574Z,971.78
2023-01-20T09:15:47.570Z,971.79
2023-01-20T09:16:47.537Z,971.84
2023-01-20T09:17:47.503Z,971.89
2023-01-20T09:18:47.484Z,971.91
2023-01-20T09:19:47.462Z,971.96
2023-01-20T09:20:47.500Z,971.97
2023-01-20T09:21:47.454Z,972.02
2023-01-20T09:22:47.408Z,972.04
2023-01-20T09:23:47.383Z,972.04
2023-01-20T09:24:47.369Z,972.07
2023-01-20T09:25:47.344Z,972.07
2023-01-20T09:26:47.330Z,972.08
2023-01-20T09:27:47.306Z,972.11
2023-01-20T09:28:47.291Z,972.11
2023-01-20T09:29:47.271Z,972.12
2023-01-20T09:30:47.309Z,972.09
2023-01-20T09:31:47.309Z,972.14
2023-01-20T09:32:47.213Z,972.16
2023-01-20T09:33:47.196Z,972.19
2023-01-20T09:34:47.179Z,972.18
2023-01-20T09:35:47.150Z,972.16
2023-01-20T09:36:47.135Z,972.14
2023-01-20T09:37:47.136Z,972.20
2023-01-20T09:38:47.124Z,972.20
2023-01-20T09:39:47.075Z,972.23
2023-01-20T09:40:47.070Z,972.23
2023-01-20T09:41:47.035Z,972.23
2023-01-20T09:42:47.032Z,972.24
2023-01-20T09:43:47.011Z,972.25
2023-01-20T09:44:46.989Z,972.26
2023-01-20T09:45:46.959Z,972.31
2023-01-20T09:46:46.947Z,972.37
2023-01-20T09:47:46.924Z,972.29
2023-01-20T09:48:46.911Z,972.32
2023-01-20T09:49:46.881Z,972.29
2023-01-20T09:50:46.869Z,972.29
2023-01-20T09:51:46.845Z,972.31
2023-01-20T09:52:46.828Z,972.27
2023-01-20T09:53:46.823Z,972.33
2023-01-20T09:54:46.793Z,972.31
2023-01-20T09:55:46.767Z,972.34
2023-01-20T09:56:46.764Z,972.36
2023-01-20T09:57:46.736Z,972.39
2023-01-20T09:58:46.714Z,972.36
2023-01-20T09:59:46.693Z,972.37
2023-01-20T10:00:46.681Z,972.34
2023-01-20T10:01:46.710Z,972.33
2023-01-20T10:02:46.637Z,972.30
2023-01-20T10:03:46.616Z,972.28
2023-01-20T10:04:46.598Z,972.26
2023-01-20T10:05:46.576Z,972.26
2023-01-20T10:06:46.563Z,972.26
2023-01-20T10:07:46.541Z,972.28
2023-01-20T10:09:03.754Z,972.30
2023-01-20T10:09:46.536Z,972.36
2023-01-20T10:10:46.491Z,972.36
2023-01-20T10:11:46.469Z,972.43
2023-01-20T10:12:46.460Z,972.43
2023-01-20T10:13:46.426Z,972.43
2023-01-20T10:14:46.409Z,972.47
2023-01-20T10:15:46.408Z,972.42
2023-01-20T10:16:46.372Z,972.41
2023-01-20T10:17:46.356Z,972.39
2023-01-20T10:18:46.386Z,972.35
2023-01-20T10:19:46.312Z,972.35
2023-01-20T10:20:46.499Z,972.36
2023-01-20T10:21:46.275Z,972.37
2023-01-20T10:22:46.258Z,972.39
2023-01-20T10:23:46.237Z,972.39
2023-01-20T10:24:46.223Z,972.43
2023-01-20T10:25:46.227Z,972.47
2023-01-20T10:26:46.185Z,972.47
2023-01-20T10:27:46.163Z,972.48
2023-01-20T10:28:46.149Z,972.44
2023-01-20T10:29:46.134Z,972.43
2023-01-20T10:30:47.331Z,972.46
2023-01-20T10:31:46.142Z,972.44
2023-01-20T10:32:46.069Z,972.41
2023-01-20T10:33:46.053Z,972.41
2023-01-20T10:34:46.055Z,972.42
2023-01-20T10:35:46.018Z,972.41
2023-01-20T10:36:45.998Z,972.42
2023-01-20T10:37:45.981Z,972.46
2023-01-20T10:38:45.960Z,972.45
2023-01-20T10:39:45.949Z,972.50
2023-01-20T10:40:45.940Z,972.47
2023-01-20T10:41:45.937Z,972.49
2023-01-20T10:42:45.885Z,972.51
2023-01-20T10:43:45.872Z,972.47
2023-01-20T10:44:45.850Z,972.50
2023-01-20T10:45:45.835Z,972.46
2023-01-20T10:46:45.876Z,972.49
2023-01-20T10:47:45.796Z,972.46
2023-01-20T10:48:45.782Z,972.47
2023-01-20T10:49:45.770Z,972.50
2023-01-20T10:50:45.737Z,972.51
2023-01-20T10:51:45.724Z,972.50
2023-01-20T10:52:45.703Z,972.49
2023-01-20T10:53:45.697Z,972.45
2023-01-20T10:54:45.684Z,972.51
2023-01-20T10:55:45.669Z,972.49
2023-01-20T10:56:45.627Z,972.49
2023-01-20T10:57:45.636Z,972.52
2023-01-20T10:58:45.589Z,972.54
2023-01-20T10:59:45.627Z,972.55
2023-01-20T11:00:45.555Z,972.50
2023-01-20T11:01:45.623Z,972.48
2023-01-20T11:02:45.645Z,972.54
2023-01-20T11:03:45.500Z,972.49
2023-01-20T11:04:45.482Z,972.49
2023-01-20T11:05:45.467Z,972.45
2023-01-20T11:06:45.443Z,972.49
2023-01-20T11:07:45.427Z,972.49
2023-01-20T11:08:45.407Z,972.46
2023-01-20T11:09:45.424Z,972.49
2023-01-20T11:10:45.370Z,972.49
2023-01-20T11:11:45.355Z,972.48
2023-01-20T11:12:45.337Z,972.50
2023-01-20T11:13:45.337Z,972.51
2023-01-20T11:14:45.300Z,972.54
2023-01-20T11:15:45.298Z,972.53
2023-01-20T11:16:45.295Z,972.56
2023-01-20T11:17:45.248Z,972.55
2023-01-20T11:18:45.226Z,972.56
2023-01-20T11:19:45.212Z,972.60
2023-01-20T11:20:45.191Z,972.60
2023-01-20T11:21:45.178Z,972.59
2023-01-20T11:22:45.155Z,972.57
2023-01-20T11:23:45.138Z,972.65
2023-01-20T11:24:45.181Z,972.63
2023-01-20T11:25:45.105Z,972.63
2023-01-20T11:26:45.081Z,972.66
2023-01-20T11:27:45.086Z,972.62
2023-01-20T11:28:45.046Z,972.64
2023-01-20T11:29:45.053Z,972.60
2023-01-20T11:30:45.029Z,972.58
2023-01-20T11:31:45.111Z,972.62
2023-01-20T11:32:45.024Z,972.63
2023-01-20T11:33:44.960Z,972.61
2023-01-20T11:34:44.937Z,972.59
2023-01-20T11:35:44.923Z,972.62
2023-01-20T11:36:46.278Z,972.61
2023-01-20T11:37:44.886Z,972.60
2023-01-20T11:38:44.878Z,972.65
2023-01-20T11:39:44.869Z,972.66
2023-01-20T11:40:44.829Z,972.67
2023-01-20T11:41:44.816Z,972.62
2023-01-20T11:42:44.802Z,972.63
2023-01-20T11:43:44.778Z,972.66
2023-01-20T11:44:44.772Z,972.67
2023-01-20T11:45:44.764Z,972.68
2023-01-20T11:46:44.782Z,972.70
2023-01-20T11:47:44.709Z,972.70
2023-01-20T11:48:44.687Z,972.65
2023-01-20T11:49:44.682Z,972.64
2023-01-20T11:50:44.662Z,972.66
2023-01-20T11:51:44.665Z,972.63
2023-01-20T11:52:44.617Z,972.67
2023-01-20T11:53:44.602Z,972.67
2023-01-20T11:54:44.583Z,972.68
2023-01-20T11:55:44.568Z,972.72
2023-01-20T11:56:44.547Z,972.71
2023-01-20T11:57:44.533Z,972.70
2023-01-20T11:58:44.516Z,972.61
2023-01-20T11:59:44.496Z,972.59
2023-01-20T12:00:44.527Z,972.63
2023-01-20T12:01:44.580Z,972.61
2023-01-20T12:02:44.446Z,972.63
2023-01-20T12:03:44.427Z,972.63
2023-01-20T12:04:44.411Z,972.59
2023-01-20T12:05:44.407Z,972.66
2023-01-20T12:06:44.372Z,972.64
2023-01-20T12:07:44.359Z,972.65
2023-01-20T12:08:44.338Z,972.69
2023-01-20T12:09:44.325Z,972.69
2023-01-20T12:10:44.304Z,972.68
2023-01-20T12:11:44.293Z,972.74
2023-01-20T12:12:44.286Z,972.73
2023-01-20T12:13:44.255Z,972.70
2023-01-20T12:14:44.235Z,972.71
2023-01-20T12:15:44.231Z,972.76
2023-01-20T12:16:44.239Z,972.70
2023-01-20T12:17:44.210Z,972.72
2023-01-20T12:19:00.560Z,972.72
2023-01-20T12:19:44.152Z,972.72
2023-01-20T12:20:54.414Z,972.67
2023-01-20T12:21:44.118Z,972.64
2023-01-20T12:22:44.096Z,972.69
2023-01-20T12:23:44.083Z,972.72
2023-01-20T12:24:44.061Z,972.69
2023-01-20T12:25:44.055Z,972.74
2023-01-20T12:26:44.027Z,972.72
2023-01-20T12:27:44.019Z,972.74
2023-01-20T12:28:43.992Z,972.71
2023-01-20T12:29:43.985Z,972.72